sensor_id;sensor_type;location;lat;lon;timestamp;temperature;humidity
43673;DHT22;41723;49.326;8.430;2022-07-23T00:01:56;24.70;91.30
43673;DHT22;41723;49.326;8.430;2022-07-23T00:04:21;24.70;91.40
43673;DHT22;41723;49.326;8.430;2022-07-23T00:06:47;24.60;91.50
43673;DHT22;41723;49.326;8.430;2022-07-23T00:09:13;24.60;91.50
43673;DHT22;41723;49.326;8.430;2022-07-23T00:11:38;24.50;91.60
43673;DHT22;41723;49.326;8.430;2022-07-23T00:14:04;24.40;91.80
43673;DHT22;41723;49.326;8.430;2022-07-23T00:16:29;24.20;92.00
43673;DHT22;41723;49.326;8.430;2022-07-23T00:18:55;24.20;92.10
43673;DHT22;41723;49.326;8.430;2022-07-23T00:21:21;24.20;92.20
43673;DHT22;41723;49.326;8.430;2022-07-23T00:23:46;24.20;92.00
43673;DHT22;41723;49.326;8.430;2022-07-23T00:26:14;24.10;92.00
43673;DHT22;41723;49.326;8.430;2022-07-23T00:28:40;24.10;91.80
43673;DHT22;41723;49.326;8.430;2022-07-23T00:31:05;24.10;91.80
43673;DHT22;41723;49.326;8.430;2022-07-23T00:33:31;24.20;91.80
43673;DHT22;41723;49.326;8.430;2022-07-23T00:35:56;24.20;91.70
43673;DHT22;41723;49.326;8.430;2022-07-23T00:38:22;24.10;91.60
43673;DHT22;41723;49.326;8.430;2022-07-23T00:40:48;24.20;91.60
43673;DHT22;41723;49.326;8.430;2022-07-23T00:43:14;24.20;91.70
43673;DHT22;41723;49.326;8.430;2022-07-23T00:45:39;24.20;91.40
43673;DHT22;41723;49.326;8.430;2022-07-23T00:48:06;24.20;91.40
43673;DHT22;41723;49.326;8.430;2022-07-23T00:50:32;24.30;91.40
43673;DHT22;41723;49.326;8.430;2022-07-23T00:52:57;24.30;91.30
43673;DHT22;41723;49.326;8.430;2022-07-23T00:55:24;24.20;91.20
43673;DHT22;41723;49.326;8.430;2022-07-23T00:57:50;24.20;91.40
43673;DHT22;41723;49.326;8.430;2022-07-23T01:00:17;24.20;91.40
43673;DHT22;41723;49.326;8.430;2022-07-23T01:02:43;24.00;91.50
43673;DHT22;41723;49.326;8.430;2022-07-23T01:05:09;24.00;91.60
43673;DHT22;41723;49.326;8.430;2022-07-23T01:07:35;24.00;91.70
43673;DHT22;41723;49.326;8.430;2022-07-23T01:10:02;24.00;91.80
43673;DHT22;41723;49.326;8.430;2022-07-23T01:12:28;24.00;91.70
43673;DHT22;41723;49.326;8.430;2022-07-23T01:14:54;24.00;91.70
43673;DHT22;41723;49.326;8.430;2022-07-23T01:17:21;24.10;91.70
43673;DHT22;41723;49.326;8.430;2022-07-23T01:19:46;24.10;91.70
43673;DHT22;41723;49.326;8.430;2022-07-23T01:22:12;24.00;91.70
43673;DHT22;41723;49.326;8.430;2022-07-23T01:24:38;24.00;91.70
43673;DHT22;41723;49.326;8.430;2022-07-23T01:27:05;23.80;91.90
43673;DHT22;41723;49.326;8.430;2022-07-23T01:29:33;23.80;92.10
43673;DHT22;41723;49.326;8.430;2022-07-23T01:32:02;23.70;92.20
43673;DHT22;41723;49.326;8.430;2022-07-23T01:34:28;23.80;92.20
43673;DHT22;41723;49.326;8.430;2022-07-23T01:36:54;23.70;92.10
43673;DHT22;41723;49.326;8.430;2022-07-23T01:39:19;23.70;92.20
43673;DHT22;41723;49.326;8.430;2022-07-23T01:41:46;23.50;92.40
43673;DHT22;41723;49.326;8.430;2022-07-23T01:44:12;23.50;92.40
43673;DHT22;41723;49.326;8.430;2022-07-23T01:46:39;23.60;92.60
43673;DHT22;41723;49.326;8.430;2022-07-23T01:49:05;23.60;92.50
43673;DHT22;41723;49.326;8.430;2022-07-23T01:51:50;23.70;92.50
43673;DHT22;41723;49.326;8.430;2022-07-23T01:54:41;23.70;92.40
43673;DHT22;41723;49.326;8.430;2022-07-23T01:57:07;23.60;92.40
43673;DHT22;41723;49.326;8.430;2022-07-23T01:59:33;23.60;92.60
43673;DHT22;41723;49.326;8.430;2022-07-23T02:01:59;23.50;92.60
43673;DHT22;41723;49.326;8.430;2022-07-23T02:04:26;23.50;92.70
43673;DHT22;41723;49.326;8.430;2022-07-23T02:06:52;23.50;92.90
43673;DHT22;41723;49.326;8.430;2022-07-23T02:09:18;23.30;92.90
43673;DHT22;41723;49.326;8.430;2022-07-23T02:11:46;23.40;92.90
43673;DHT22;41723;49.326;8.430;2022-07-23T02:14:12;23.30;93.00
43673;DHT22;41723;49.326;8.430;2022-07-23T02:16:37;23.40;92.90
43673;DHT22;41723;49.326;8.430;2022-07-23T02:19:03;23.30;93.00
43673;DHT22;41723;49.326;8.430;2022-07-23T02:21:29;23.20;93.10
43673;DHT22;41723;49.326;8.430;2022-07-23T02:23:54;23.20;93.40
43673;DHT22;41723;49.326;8.430;2022-07-23T02:26:20;23.20;93.50
43673;DHT22;41723;49.326;8.430;2022-07-23T02:28:46;23.30;93.40
43673;DHT22;41723;49.326;8.430;2022-07-23T02:31:12;23.40;93.40
43673;DHT22;41723;49.326;8.430;2022-07-23T02:33:38;23.50;93.20
43673;DHT22;41723;49.326;8.430;2022-07-23T02:36:03;23.50;93.10
43673;DHT22;41723;49.326;8.430;2022-07-23T02:38:30;23.50;93.40
43673;DHT22;41723;49.326;8.430;2022-07-23T02:40:56;23.50;93.00
43673;DHT22;41723;49.326;8.430;2022-07-23T02:43:21;23.50;93.10
43673;DHT22;41723;49.326;8.430;2022-07-23T02:45:47;23.50;93.10
43673;DHT22;41723;49.326;8.430;2022-07-23T02:48:12;23.50;93.00
43673;DHT22;41723;49.326;8.430;2022-07-23T02:50:42;23.40;93.20
43673;DHT22;41723;49.326;8.430;2022-07-23T02:53:07;23.50;93.10
43673;DHT22;41723;49.326;8.430;2022-07-23T02:55:33;23.50;93.10
43673;DHT22;41723;49.326;8.430;2022-07-23T02:58:01;23.50;93.10
43673;DHT22;41723;49.326;8.430;2022-07-23T03:00:27;23.60;93.10
43673;DHT22;41723;49.326;8.430;2022-07-23T03:02:52;23.50;93.20
43673;DHT22;41723;49.326;8.430;2022-07-23T03:05:18;23.50;93.20
43673;DHT22;41723;49.326;8.430;2022-07-23T03:07:44;23.50;93.10
43673;DHT22;41723;49.326;8.430;2022-07-23T03:10:09;23.50;93.20
43673;DHT22;41723;49.326;8.430;2022-07-23T03:12:35;23.50;93.30
43673;DHT22;41723;49.326;8.430;2022-07-23T03:15:01;23.30;93.50
43673;DHT22;41723;49.326;8.430;2022-07-23T03:17:27;23.30;93.60
43673;DHT22;41723;49.326;8.430;2022-07-23T03:19:53;23.50;93.60
43673;DHT22;41723;49.326;8.430;2022-07-23T03:22:18;23.40;93.40
43673;DHT22;41723;49.326;8.430;2022-07-23T03:24:44;23.30;93.70
43673;DHT22;41723;49.326;8.430;2022-07-23T03:27:24;23.10;93.90
43673;DHT22;41723;49.326;8.430;2022-07-23T03:29:50;23.10;94.10
43673;DHT22;41723;49.326;8.430;2022-07-23T03:32:17;23.00;94.10
43673;DHT22;41723;49.326;8.430;2022-07-23T03:34:42;23.20;94.00
43673;DHT22;41723;49.326;8.430;2022-07-23T03:37:08;23.20;94.00
43673;DHT22;41723;49.326;8.430;2022-07-23T03:39:35;23.30;94.00
43673;DHT22;41723;49.326;8.430;2022-07-23T03:42:01;23.30;93.90
43673;DHT22;41723;49.326;8.430;2022-07-23T03:44:27;23.30;93.90
43673;DHT22;41723;49.326;8.430;2022-07-23T03:46:52;23.30;94.00
43673;DHT22;41723;49.326;8.430;2022-07-23T03:49:18;23.30;93.90
43673;DHT22;41723;49.326;8.430;2022-07-23T03:51:43;23.40;93.80
43673;DHT22;41723;49.326;8.430;2022-07-23T03:54:09;23.50;93.80
43673;DHT22;41723;49.326;8.430;2022-07-23T03:56:35;23.40;94.10
43673;DHT22;41723;49.326;8.430;2022-07-23T03:59:00;23.40;94.10
43673;DHT22;41723;49.326;8.430;2022-07-23T04:01:26;23.40;94.00
43673;DHT22;41723;49.326;8.430;2022-07-23T04:03:52;23.40;93.80
43673;DHT22;41723;49.326;8.430;2022-07-23T04:06:17;23.40;93.90
43673;DHT22;41723;49.326;8.430;2022-07-23T04:08:43;23.50;94.00
43673;DHT22;41723;49.326;8.430;2022-07-23T04:11:09;23.50;94.10
43673;DHT22;41723;49.326;8.430;2022-07-23T04:13:35;23.50;95.50
43673;DHT22;41723;49.326;8.430;2022-07-23T04:16:02;23.30;96.20
43673;DHT22;41723;49.326;8.430;2022-07-23T04:18:29;23.30;96.90
43673;DHT22;41723;49.326;8.430;2022-07-23T04:21:05;23.30;96.50
43673;DHT22;41723;49.326;8.430;2022-07-23T04:23:32;23.30;96.70
43673;DHT22;41723;49.326;8.430;2022-07-23T04:25:57;23.30;96.90
43673;DHT22;41723;49.326;8.430;2022-07-23T04:28:23;23.10;97.60
43673;DHT22;41723;49.326;8.430;2022-07-23T04:30:49;22.80;98.20
43673;DHT22;41723;49.326;8.430;2022-07-23T04:33:16;22.80;98.70
43673;DHT22;41723;49.326;8.430;2022-07-23T04:35:41;22.70;98.70
43673;DHT22;41723;49.326;8.430;2022-07-23T04:38:19;22.80;98.70
43673;DHT22;41723;49.326;8.430;2022-07-23T04:40:46;22.60;98.70
43673;DHT22;41723;49.326;8.430;2022-07-23T04:43:12;22.50;99.10
43673;DHT22;41723;49.326;8.430;2022-07-23T04:45:44;22.40;99.10
43673;DHT22;41723;49.326;8.430;2022-07-23T04:48:10;22.50;99.30
43673;DHT22;41723;49.326;8.430;2022-07-23T04:50:36;22.60;98.80
43673;DHT22;41723;49.326;8.430;2022-07-23T04:53:04;22.60;99.40
43673;DHT22;41723;49.326;8.430;2022-07-23T04:55:30;22.80;99.90
43673;DHT22;41723;49.326;8.430;2022-07-23T04:57:55;22.80;99.20
43673;DHT22;41723;49.326;8.430;2022-07-23T05:00:21;22.80;99.50
43673;DHT22;41723;49.326;8.430;2022-07-23T05:02:47;22.80;99.70
43673;DHT22;41723;49.326;8.430;2022-07-23T05:05:12;22.80;99.10
43673;DHT22;41723;49.326;8.430;2022-07-23T05:07:40;22.70;99.20
43673;DHT22;41723;49.326;8.430;2022-07-23T05:10:06;22.50;99.40
43673;DHT22;41723;49.326;8.430;2022-07-23T05:12:32;22.60;99.40
43673;DHT22;41723;49.326;8.430;2022-07-23T05:14:58;22.70;99.10
43673;DHT22;41723;49.326;8.430;2022-07-23T05:17:24;22.50;99.50
43673;DHT22;41723;49.326;8.430;2022-07-23T05:19:50;22.30;99.70
43673;DHT22;41723;49.326;8.430;2022-07-23T05:22:16;22.30;99.80
43673;DHT22;41723;49.326;8.430;2022-07-23T05:24:42;22.30;99.90
43673;DHT22;41723;49.326;8.430;2022-07-23T05:27:08;22.20;99.90
43673;DHT22;41723;49.326;8.430;2022-07-23T05:29:34;22.00;99.90
43673;DHT22;41723;49.326;8.430;2022-07-23T05:32:00;22.10;99.90
43673;DHT22;41723;49.326;8.430;2022-07-23T05:34:27;22.10;99.90
43673;DHT22;41723;49.326;8.430;2022-07-23T05:36:52;22.00;99.90
43673;DHT22;41723;49.326;8.430;2022-07-23T05:39:19;22.00;99.90
43673;DHT22;41723;49.326;8.430;2022-07-23T05:41:45;21.90;99.90
43673;DHT22;41723;49.326;8.430;2022-07-23T05:44:11;21.80;99.90
43673;DHT22;41723;49.326;8.430;2022-07-23T05:46:39;21.70;99.90
43673;DHT22;41723;49.326;8.430;2022-07-23T05:49:07;21.60;99.90
43673;DHT22;41723;49.326;8.430;2022-07-23T05:51:51;21.40;99.90
43673;DHT22;41723;49.326;8.430;2022-07-23T05:54:26;21.40;99.90
43673;DHT22;41723;49.326;8.430;2022-07-23T05:56:51;21.40;99.90
43673;DHT22;41723;49.326;8.430;2022-07-23T05:59:18;21.50;99.90
43673;DHT22;41723;49.326;8.430;2022-07-23T06:01:43;21.60;99.90
43673;DHT22;41723;49.326;8.430;2022-07-23T06:04:10;21.70;99.90
43673;DHT22;41723;49.326;8.430;2022-07-23T06:06:41;21.90;99.90
43673;DHT22;41723;49.326;8.430;2022-07-23T06:09:09;22.00;99.90
43673;DHT22;41723;49.326;8.430;2022-07-23T06:11:36;22.00;99.90
43673;DHT22;41723;49.326;8.430;2022-07-23T06:14:02;21.80;99.90
43673;DHT22;41723;49.326;8.430;2022-07-23T06:16:41;21.90;99.90
43673;DHT22;41723;49.326;8.430;2022-07-23T06:19:07;22.00;99.90
43673;DHT22;41723;49.326;8.430;2022-07-23T06:21:33;21.90;99.90
43673;DHT22;41723;49.326;8.430;2022-07-23T06:23:58;21.80;99.90
43673;DHT22;41723;49.326;8.430;2022-07-23T06:26:24;21.60;99.90
43673;DHT22;41723;49.326;8.430;2022-07-23T06:28:50;21.60;99.90
43673;DHT22;41723;49.326;8.430;2022-07-23T06:31:15;21.70;99.90
43673;DHT22;41723;49.326;8.430;2022-07-23T06:33:41;21.80;99.90
43673;DHT22;41723;49.326;8.430;2022-07-23T06:36:06;21.90;99.90
43673;DHT22;41723;49.326;8.430;2022-07-23T06:38:32;21.90;99.90
43673;DHT22;41723;49.326;8.430;2022-07-23T06:40:57;22.00;99.90
43673;DHT22;41723;49.326;8.430;2022-07-23T06:43:23;22.00;99.90
43673;DHT22;41723;49.326;8.430;2022-07-23T06:45:53;21.90;99.90
43673;DHT22;41723;49.326;8.430;2022-07-23T06:48:18;21.80;99.90
43673;DHT22;41723;49.326;8.430;2022-07-23T06:50:44;21.90;99.90
43673;DHT22;41723;49.326;8.430;2022-07-23T06:53:10;22.00;99.90
43673;DHT22;41723;49.326;8.430;2022-07-23T06:55:40;22.00;99.90
43673;DHT22;41723;49.326;8.430;2022-07-23T06:58:05;22.10;99.90
43673;DHT22;41723;49.326;8.430;2022-07-23T07:00:31;22.00;99.90
43673;DHT22;41723;49.326;8.430;2022-07-23T07:02:57;22.00;99.90
43673;DHT22;41723;49.326;8.430;2022-07-23T07:05:23;22.10;99.90
43673;DHT22;41723;49.326;8.430;2022-07-23T07:07:50;22.10;99.90
43673;DHT22;41723;49.326;8.430;2022-07-23T07:10:16;22.20;99.90
43673;DHT22;41723;49.326;8.430;2022-07-23T07:12:42;22.10;99.90
43673;DHT22;41723;49.326;8.430;2022-07-23T07:15:08;22.10;99.90
43673;DHT22;41723;49.326;8.430;2022-07-23T07:17:34;22.20;99.90
43673;DHT22;41723;49.326;8.430;2022-07-23T07:19:59;22.00;99.90
43673;DHT22;41723;49.326;8.430;2022-07-23T07:22:25;22.10;99.90
43673;DHT22;41723;49.326;8.430;2022-07-23T07:24:50;22.30;99.90
43673;DHT22;41723;49.326;8.430;2022-07-23T07:27:16;22.40;99.90
43673;DHT22;41723;49.326;8.430;2022-07-23T07:29:42;22.40;99.90
43673;DHT22;41723;49.326;8.430;2022-07-23T07:32:09;22.20;99.90
43673;DHT22;41723;49.326;8.430;2022-07-23T07:34:34;22.20;99.90
43673;DHT22;41723;49.326;8.430;2022-07-23T07:37:00;22.00;99.90
43673;DHT22;41723;49.326;8.430;2022-07-23T07:39:26;22.10;99.90
43673;DHT22;41723;49.326;8.430;2022-07-23T07:41:51;22.20;99.90
43673;DHT22;41723;49.326;8.430;2022-07-23T07:44:17;22.20;99.90
43673;DHT22;41723;49.326;8.430;2022-07-23T07:46:42;22.20;99.90
43673;DHT22;41723;49.326;8.430;2022-07-23T07:49:08;22.20;99.90
43673;DHT22;41723;49.326;8.430;2022-07-23T07:51:37;22.40;99.90
43673;DHT22;41723;49.326;8.430;2022-07-23T07:54:03;22.50;99.90
43673;DHT22;41723;49.326;8.430;2022-07-23T07:56:28;22.60;99.90
43673;DHT22;41723;49.326;8.430;2022-07-23T07:58:54;22.40;99.90
43673;DHT22;41723;49.326;8.430;2022-07-23T08:01:20;22.30;99.90
43673;DHT22;41723;49.326;8.430;2022-07-23T08:03:51;22.20;99.90
43673;DHT22;41723;49.326;8.430;2022-07-23T08:06:25;22.10;99.90
43673;DHT22;41723;49.326;8.430;2022-07-23T08:08:51;22.20;99.90
43673;DHT22;41723;49.326;8.430;2022-07-23T08:11:18;22.20;99.90
43673;DHT22;41723;49.326;8.430;2022-07-23T08:13:43;22.10;99.90
43673;DHT22;41723;49.326;8.430;2022-07-23T08:16:10;22.10;99.90
43673;DHT22;41723;49.326;8.430;2022-07-23T08:18:36;22.30;99.90
43673;DHT22;41723;49.326;8.430;2022-07-23T08:21:01;22.20;99.90
43673;DHT22;41723;49.326;8.430;2022-07-23T08:23:27;22.30;99.90
43673;DHT22;41723;49.326;8.430;2022-07-23T08:25:53;22.20;99.90
43673;DHT22;41723;49.326;8.430;2022-07-23T08:28:18;22.40;99.90
43673;DHT22;41723;49.326;8.430;2022-07-23T08:30:44;22.30;99.90
43673;DHT22;41723;49.326;8.430;2022-07-23T08:33:14;22.40;99.90
43673;DHT22;41723;49.326;8.430;2022-07-23T08:35:41;22.40;99.90
43673;DHT22;41723;49.326;8.430;2022-07-23T08:38:08;22.30;99.90
43673;DHT22;41723;49.326;8.430;2022-07-23T08:40:36;22.40;99.90
43673;DHT22;41723;49.326;8.430;2022-07-23T08:43:05;22.60;99.90
43673;DHT22;41723;49.326;8.430;2022-07-23T08:45:31;22.80;99.90
43673;DHT22;41723;49.326;8.430;2022-07-23T08:48:00;22.80;99.90
43673;DHT22;41723;49.326;8.430;2022-07-23T08:50:26;22.70;99.90
43673;DHT22;41723;49.326;8.430;2022-07-23T08:52:52;22.70;99.90
43673;DHT22;41723;49.326;8.430;2022-07-23T08:55:18;22.80;99.90
43673;DHT22;41723;49.326;8.430;2022-07-23T08:57:45;22.90;99.90
43673;DHT22;41723;49.326;8.430;2022-07-23T09:00:12;23.00;99.90
43673;DHT22;41723;49.326;8.430;2022-07-23T09:02:39;23.00;99.90
43673;DHT22;41723;49.326;8.430;2022-07-23T09:05:05;22.70;99.90
43673;DHT22;41723;49.326;8.430;2022-07-23T09:07:31;22.90;99.90
43673;DHT22;41723;49.326;8.430;2022-07-23T09:10:05;23.00;99.90
43673;DHT22;41723;49.326;8.430;2022-07-23T09:12:30;23.10;99.90
43673;DHT22;41723;49.326;8.430;2022-07-23T09:14:56;23.20;99.90
43673;DHT22;41723;49.326;8.430;2022-07-23T09:17:28;23.50;99.80
43673;DHT22;41723;49.326;8.430;2022-07-23T09:20:08;23.80;99.60
43673;DHT22;41723;49.326;8.430;2022-07-23T09:22:34;24.00;99.10
43673;DHT22;41723;49.326;8.430;2022-07-23T09:25:03;24.10;98.30
43673;DHT22;41723;49.326;8.430;2022-07-23T09:30:13;24.20;98.50
43673;DHT22;41723;49.326;8.430;2022-07-23T09:32:39;24.20;98.60
43673;DHT22;41723;49.326;8.430;2022-07-23T09:35:05;24.30;98.20
43673;DHT22;41723;49.326;8.430;2022-07-23T09:37:31;24.40;97.90
43673;DHT22;41723;49.326;8.430;2022-07-23T09:40:07;24.40;98.30
43673;DHT22;41723;49.326;8.430;2022-07-23T09:42:34;24.50;98.30
43673;DHT22;41723;49.326;8.430;2022-07-23T09:44:59;24.50;98.20
43673;DHT22;41723;49.326;8.430;2022-07-23T09:47:26;24.60;98.00
43673;DHT22;41723;49.326;8.430;2022-07-23T09:50:06;24.80;98.10
43673;DHT22;41723;49.326;8.430;2022-07-23T09:52:36;24.80;97.50
43673;DHT22;41723;49.326;8.430;2022-07-23T09:55:07;24.90;96.70
43673;DHT22;41723;49.326;8.430;2022-07-23T09:57:33;24.60;96.40
43673;DHT22;41723;49.326;8.430;2022-07-23T10:00:01;24.70;97.00
43673;DHT22;41723;49.326;8.430;2022-07-23T10:02:31;24.90;96.40
43673;DHT22;41723;49.326;8.430;2022-07-23T10:05:29;25.10;96.60
43673;DHT22;41723;49.326;8.430;2022-07-23T10:08:11;25.20;96.10
43673;DHT22;41723;49.326;8.430;2022-07-23T10:10:55;25.30;96.20
43673;DHT22;41723;49.326;8.430;2022-07-23T10:13:42;25.50;96.10
43673;DHT22;41723;49.326;8.430;2022-07-23T10:16:28;25.60;95.40
43673;DHT22;41723;49.326;8.430;2022-07-23T10:18:54;25.50;95.70
43673;DHT22;41723;49.326;8.430;2022-07-23T10:27:04;25.70;95.40
43673;DHT22;41723;49.326;8.430;2022-07-23T10:29:39;25.80;94.80
43673;DHT22;41723;49.326;8.430;2022-07-23T10:32:08;25.90;94.80
43673;DHT22;41723;49.326;8.430;2022-07-23T10:37:12;25.80;94.90
43673;DHT22;41723;49.326;8.430;2022-07-23T10:39:42;25.60;95.00
43673;DHT22;41723;49.326;8.430;2022-07-23T10:42:15;25.40;95.00
43673;DHT22;41723;49.326;8.430;2022-07-23T10:44:44;25.40;95.00
43673;DHT22;41723;49.326;8.430;2022-07-23T10:47:11;25.50;95.30
43673;DHT22;41723;49.326;8.430;2022-07-23T10:50:30;25.70;94.80
43673;DHT22;41723;49.326;8.430;2022-07-23T10:57:52;25.90;94.20
43673;DHT22;41723;49.326;8.430;2022-07-23T11:00:21;26.20;94.40
43673;DHT22;41723;49.326;8.430;2022-07-23T11:02:48;26.20;94.00
43673;DHT22;41723;49.326;8.430;2022-07-23T11:05:15;26.10;94.10
43673;DHT22;41723;49.326;8.430;2022-07-23T11:10:38;25.80;93.50
43673;DHT22;41723;49.326;8.430;2022-07-23T11:23:58;26.80;92.40
43673;DHT22;41723;49.326;8.430;2022-07-23T11:31:53;27.20;92.20
43673;DHT22;41723;49.326;8.430;2022-07-23T11:36:57;27.30;91.80
43673;DHT22;41723;49.326;8.430;2022-07-23T11:39:24;27.40;92.10
43673;DHT22;41723;49.326;8.430;2022-07-23T11:41:50;27.40;91.80
43673;DHT22;41723;49.326;8.430;2022-07-23T11:47:02;27.40;91.90
43673;DHT22;41723;49.326;8.430;2022-07-23T11:49:28;27.60;91.70
43673;DHT22;41723;49.326;8.430;2022-07-23T11:52:04;27.70;91.60
43673;DHT22;41723;49.326;8.430;2022-07-23T11:54:30;28.00;91.40
43673;DHT22;41723;49.326;8.430;2022-07-23T11:56:57;27.80;91.20
43673;DHT22;41723;49.326;8.430;2022-07-23T11:59:23;27.40;91.60
43673;DHT22;41723;49.326;8.430;2022-07-23T12:01:59;27.30;91.90
43673;DHT22;41723;49.326;8.430;2022-07-23T12:04:44;27.50;91.90
43673;DHT22;41723;49.326;8.430;2022-07-23T12:15:07;28.50;90.80
43673;DHT22;41723;49.326;8.430;2022-07-23T12:17:34;28.60;90.50
43673;DHT22;41723;49.326;8.430;2022-07-23T12:20:00;28.80;90.70
43673;DHT22;41723;49.326;8.430;2022-07-23T12:22:33;28.60;90.30
43673;DHT22;41723;49.326;8.430;2022-07-23T12:25:00;28.50;90.50
43673;DHT22;41723;49.326;8.430;2022-07-23T12:27:26;28.40;90.10
43673;DHT22;41723;49.326;8.430;2022-07-23T12:29:51;28.60;90.50
43673;DHT22;41723;49.326;8.430;2022-07-23T12:32:21;28.80;90.30
43673;DHT22;41723;49.326;8.430;2022-07-23T12:34:48;29.10;90.40
43673;DHT22;41723;49.326;8.430;2022-07-23T12:37:27;29.30;90.00
43673;DHT22;41723;49.326;8.430;2022-07-23T12:39:54;29.30;89.30
43673;DHT22;41723;49.326;8.430;2022-07-23T12:42:19;29.40;89.30
43673;DHT22;41723;49.326;8.430;2022-07-23T12:45:04;29.20;89.00
43673;DHT22;41723;49.326;8.430;2022-07-23T12:47:30;28.90;89.30
43673;DHT22;41723;49.326;8.430;2022-07-23T12:49:55;28.30;90.10
43673;DHT22;41723;49.326;8.430;2022-07-23T12:52:22;28.30;90.30
43673;DHT22;41723;49.326;8.430;2022-07-23T12:54:47;28.40;90.20
43673;DHT22;41723;49.326;8.430;2022-07-23T12:57:13;28.30;90.30
43673;DHT22;41723;49.326;8.430;2022-07-23T12:59:38;28.30;90.30
43673;DHT22;41723;49.326;8.430;2022-07-23T13:02:04;28.40;90.30
43673;DHT22;41723;49.326;8.430;2022-07-23T13:04:33;28.20;90.40
43673;DHT22;41723;49.326;8.430;2022-07-23T13:06:59;28.00;90.80
43673;DHT22;41723;49.326;8.430;2022-07-23T13:09:27;27.50;91.20
43673;DHT22;41723;49.326;8.430;2022-07-23T13:11:53;27.50;91.80
43673;DHT22;41723;49.326;8.430;2022-07-23T13:14:19;27.60;91.60
43673;DHT22;41723;49.326;8.430;2022-07-23T13:16:45;27.70;91.60
43673;DHT22;41723;49.326;8.430;2022-07-23T13:19:11;27.70;91.80
43673;DHT22;41723;49.326;8.430;2022-07-23T13:21:37;27.50;92.00
43673;DHT22;41723;49.326;8.430;2022-07-23T13:24:03;27.60;91.50
43673;DHT22;41723;49.326;8.430;2022-07-23T13:26:30;27.70;91.30
43673;DHT22;41723;49.326;8.430;2022-07-23T13:28:56;27.80;91.90
43673;DHT22;41723;49.326;8.430;2022-07-23T13:31:21;27.80;91.80
43673;DHT22;41723;49.326;8.430;2022-07-23T13:33:47;27.70;91.80
43673;DHT22;41723;49.326;8.430;2022-07-23T13:36:13;27.50;91.50
43673;DHT22;41723;49.326;8.430;2022-07-23T13:38:39;27.30;91.50
43673;DHT22;41723;49.326;8.430;2022-07-23T13:41:05;27.10;91.60
43673;DHT22;41723;49.326;8.430;2022-07-23T13:43:31;27.00;91.70
43673;DHT22;41723;49.326;8.430;2022-07-23T13:45:57;27.00;91.40
43673;DHT22;41723;49.326;8.430;2022-07-23T13:48:22;27.00;91.70
43673;DHT22;41723;49.326;8.430;2022-07-23T13:50:49;27.10;91.40
43673;DHT22;41723;49.326;8.430;2022-07-23T13:53:16;27.20;91.20
43673;DHT22;41723;49.326;8.430;2022-07-23T13:55:42;27.20;91.60
43673;DHT22;41723;49.326;8.430;2022-07-23T13:58:08;27.20;90.80
43673;DHT22;41723;49.326;8.430;2022-07-23T14:00:35;27.10;91.30
43673;DHT22;41723;49.326;8.430;2022-07-23T14:03:00;27.20;91.00
43673;DHT22;41723;49.326;8.430;2022-07-23T14:05:26;27.30;91.60
43673;DHT22;41723;49.326;8.430;2022-07-23T14:07:52;27.30;91.60
43673;DHT22;41723;49.326;8.430;2022-07-23T14:10:19;27.40;91.10
43673;DHT22;41723;49.326;8.430;2022-07-23T14:12:45;27.30;91.10
43673;DHT22;41723;49.326;8.430;2022-07-23T14:15:11;27.30;91.20
43673;DHT22;41723;49.326;8.430;2022-07-23T14:17:37;27.40;91.20
43673;DHT22;41723;49.326;8.430;2022-07-23T14:20:03;27.40;91.40
43673;DHT22;41723;49.326;8.430;2022-07-23T14:22:29;27.40;91.20
43673;DHT22;41723;49.326;8.430;2022-07-23T14:24:55;27.40;91.10
43673;DHT22;41723;49.326;8.430;2022-07-23T14:27:23;27.40;91.30
43673;DHT22;41723;49.326;8.430;2022-07-23T14:29:48;27.40;91.30
43673;DHT22;41723;49.326;8.430;2022-07-23T14:32:14;27.50;91.10
43673;DHT22;41723;49.326;8.430;2022-07-23T14:34:40;27.40;91.50
43673;DHT22;41723;49.326;8.430;2022-07-23T14:37:05;27.50;91.00
43673;DHT22;41723;49.326;8.430;2022-07-23T14:39:31;27.60;91.00
43673;DHT22;41723;49.326;8.430;2022-07-23T14:41:56;27.70;91.20
43673;DHT22;41723;49.326;8.430;2022-07-23T14:44:22;27.70;91.20
43673;DHT22;41723;49.326;8.430;2022-07-23T14:46:48;27.80;91.60
43673;DHT22;41723;49.326;8.430;2022-07-23T14:49:14;27.80;91.10
43673;DHT22;41723;49.326;8.430;2022-07-23T14:51:40;27.80;90.90
43673;DHT22;41723;49.326;8.430;2022-07-23T14:54:07;28.00;90.60
43673;DHT22;41723;49.326;8.430;2022-07-23T14:56:33;28.00;91.10
43673;DHT22;41723;49.326;8.430;2022-07-23T14:58:59;28.20;90.40
43673;DHT22;41723;49.326;8.430;2022-07-23T15:01:24;28.20;90.60
43673;DHT22;41723;49.326;8.430;2022-07-23T15:03:50;28.20;90.20
43673;DHT22;41723;49.326;8.430;2022-07-23T15:06:16;28.30;90.40
43673;DHT22;41723;49.326;8.430;2022-07-23T15:08:43;28.20;90.00
43673;DHT22;41723;49.326;8.430;2022-07-23T15:11:08;28.20;90.40
43673;DHT22;41723;49.326;8.430;2022-07-23T15:13:35;28.40;89.10
43673;DHT22;41723;49.326;8.430;2022-07-23T15:16:00;28.50;87.70
43673;DHT22;41723;49.326;8.430;2022-07-23T15:18:26;28.60;88.30
43673;DHT22;41723;49.326;8.430;2022-07-23T15:20:52;28.60;88.50
43673;DHT22;41723;49.326;8.430;2022-07-23T15:23:17;28.60;88.00
43673;DHT22;41723;49.326;8.430;2022-07-23T15:25:43;28.70;87.30
43673;DHT22;41723;49.326;8.430;2022-07-23T15:28:08;28.50;87.80
43673;DHT22;41723;49.326;8.430;2022-07-23T15:30:34;28.60;87.70
43673;DHT22;41723;49.326;8.430;2022-07-23T15:33:00;28.60;87.60
43673;DHT22;41723;49.326;8.430;2022-07-23T15:35:25;28.60;87.80
43673;DHT22;41723;49.326;8.430;2022-07-23T15:37:51;28.40;86.70
43673;DHT22;41723;49.326;8.430;2022-07-23T15:40:16;28.40;86.80
43673;DHT22;41723;49.326;8.430;2022-07-23T15:42:42;28.30;87.10
43673;DHT22;41723;49.326;8.430;2022-07-23T15:45:08;28.30;87.10
43673;DHT22;41723;49.326;8.430;2022-07-23T15:47:34;28.40;87.20
43673;DHT22;41723;49.326;8.430;2022-07-23T15:49:59;28.60;87.30
43673;DHT22;41723;49.326;8.430;2022-07-23T15:52:25;28.60;86.80
43673;DHT22;41723;49.326;8.430;2022-07-23T15:54:50;28.60;87.50
43673;DHT22;41723;49.326;8.430;2022-07-23T15:57:16;28.50;87.00
43673;DHT22;41723;49.326;8.430;2022-07-23T15:59:41;28.50;86.60
43673;DHT22;41723;49.326;8.430;2022-07-23T16:02:07;28.40;87.00
43673;DHT22;41723;49.326;8.430;2022-07-23T16:04:33;28.40;88.30
43673;DHT22;41723;49.326;8.430;2022-07-23T16:06:59;28.30;88.20
43673;DHT22;41723;49.326;8.430;2022-07-23T16:09:24;28.30;88.70
43673;DHT22;41723;49.326;8.430;2022-07-23T16:11:50;28.30;88.40
43673;DHT22;41723;49.326;8.430;2022-07-23T16:14:16;28.20;88.60
43673;DHT22;41723;49.326;8.430;2022-07-23T16:16:42;28.10;87.30
43673;DHT22;41723;49.326;8.430;2022-07-23T16:19:07;28.10;87.30